sensor_id;sensor_type;location;lat;lon;timestamp;pressure;altitude;pressure_sealevel;temperature;humidity
34921;BME280;21128;50.016;20.002;2023-04-25T00:01:41;97674.66;;;10.88;100.00
34921;BME280;21128;50.016;20.002;2023-04-25T00:04:08;97684.00;;;10.90;100.00
34921;BME280;21128;50.016;20.002;2023-04-25T00:06:35;97679.73;;;10.89;100.00
34921;BME280;21128;50.016;20.002;2023-04-25T00:09:06;97678.92;;;10.89;100.00
34921;BME280;21128;50.016;20.002;2023-04-25T00:11:37;97676.30;;;10.89;100.00
34921;BME280;21128;50.016;20.002;2023-04-25T00:14:04;97685.17;;;10.88;100.00
34921;BME280;21128;50.016;20.002;2023-04-25T00:16:33;97680.41;;;10.83;100.00
34921;BME280;21128;50.016;20.002;2023-04-25T00:19:02;97674.70;;;10.80;100.00
34921;BME280;21128;50.016;20.002;2023-04-25T00:21:30;97676.37;;;10.73;100.00
34921;BME280;21128;50.016;20.002;2023-04-25T00:23:58;97682.47;;;10.65;100.00
34921;BME280;21128;50.016;20.002;2023-04-25T00:26:26;97690.20;;;10.58;100.00
34921;BME280;21128;50.016;20.002;2023-04-25T00:28:53;97695.48;;;10.50;100.00
34921;BME280;21128;50.016;20.002;2023-04-25T00:31:21;97696.36;;;10.42;100.00
34921;BME280;21128;50.016;20.002;2023-04-25T00:33:48;97690.14;;;10.35;100.00
34921;BME280;21128;50.016;20.002;2023-04-25T00:36:15;97703.94;;;10.29;100.00
34921;BME280;21128;50.016;20.002;2023-04-25T00:38:43;97699.98;;;10.25;100.00
34921;BME280;21128;50.016;20.002;2023-04-25T00:41:10;97698.02;;;10.19;100.00
34921;BME280;21128;50.016;20.002;2023-04-25T00:43:39;97699.50;;;10.13;100.00
34921;BME280;21128;50.016;20.002;2023-04-25T00:46:06;97698.21;;;10.09;100.00
34921;BME280;21128;50.016;20.002;2023-04-25T00:48:33;97704.59;;;10.07;100.00
34921;BME280;21128;50.016;20.002;2023-04-25T00:51:00;97712.63;;;10.05;100.00
34921;BME280;21128;50.016;20.002;2023-04-25T00:53:28;97704.28;;;10.02;100.00
34921;BME280;21128;50.016;20.002;2023-04-25T00:55:57;97712.30;;;10.00;100.00
34921;BME280;21128;50.016;20.002;2023-04-25T00:58:24;97712.64;;;9.97;100.00
34921;BME280;21128;50.016;20.002;2023-04-25T01:00:51;97707.73;;;9.94;100.00
34921;BME280;21128;50.016;20.002;2023-04-25T01:03:19;97713.16;;;9.93;100.00
34921;BME280;21128;50.016;20.002;2023-04-25T01:05:49;97718.41;;;9.93;100.00
34921;BME280;21128;50.016;20.002;2023-04-25T01:08:17;97706.58;;;9.88;100.00
34921;BME280;21128;50.016;20.002;2023-04-25T01:10:44;97719.88;;;9.87;100.00
34921;BME280;21128;50.016;20.002;2023-04-25T01:13:11;97712.98;;;9.86;100.00
34921;BME280;21128;50.016;20.002;2023-04-25T01:15:38;97715.78;;;9.84;100.00
34921;BME280;21128;50.016;20.002;2023-04-25T01:18:06;97722.97;;;9.82;100.00
34921;BME280;21128;50.016;20.002;2023-04-25T01:20:33;97727.41;;;9.82;100.00
34921;BME280;21128;50.016;20.002;2023-04-25T01:23:01;97724.95;;;9.80;100.00
34921;BME280;21128;50.016;20.002;2023-04-25T01:25:33;97724.95;;;9.80;100.00
34921;BME280;21128;50.016;20.002;2023-04-25T01:28:00;97715.44;;;9.79;100.00
34921;BME280;21128;50.016;20.002;2023-04-25T01:30:27;97721.03;;;9.76;100.00
34921;BME280;21128;50.016;20.002;2023-04-25T01:32:56;97718.41;;;9.76;100.00
34921;BME280;21128;50.016;20.002;2023-04-25T01:35:23;97724.64;;;9.75;100.00
34921;BME280;21128;50.016;20.002;2023-04-25T01:37:51;97722.84;;;9.76;100.00
34921;BME280;21128;50.016;20.002;2023-04-25T01:40:19;97720.21;;;9.76;100.00
34921;BME280;21128;50.016;20.002;2023-04-25T01:42:47;97716.91;;;9.74;100.00
34921;BME280;21128;50.016;20.002;2023-04-25T01:45:14;97722.97;;;9.74;100.00
34921;BME280;21128;50.016;20.002;2023-04-25T01:47:42;97718.55;;;9.75;100.00
34921;BME280;21128;50.016;20.002;2023-04-25T01:50:10;97729.04;;;9.75;100.00
34921;BME280;21128;50.016;20.002;2023-04-25T01:52:38;97721.34;;;9.73;100.00
34921;BME280;21128;50.016;20.002;2023-04-25T01:55:05;97725.77;;;9.73;100.00
34921;BME280;21128;50.016;20.002;2023-04-25T01:57:32;97732.98;;;9.71;100.00
34921;BME280;21128;50.016;20.002;2023-04-25T02:00:02;97729.37;;;9.72;100.00
34921;BME280;21128;50.016;20.002;2023-04-25T02:02:29;97729.20;;;9.73;100.00
34921;BME280;21128;50.016;20.002;2023-04-25T02:04:56;97737.08;;;9.73;100.00
34921;BME280;21128;50.016;20.002;2023-04-25T02:07:25;97739.88;;;9.72;100.00
34921;BME280;21128;50.016;20.002;2023-04-25T02:09:52;97740.04;;;9.70;100.00
34921;BME280;21128;50.016;20.002;2023-04-25T02:12:19;97736.77;;;9.68;100.00
34921;BME280;21128;50.016;20.002;2023-04-25T02:14:46;97734.45;;;9.65;100.00
34921;BME280;21128;50.016;20.002;2023-04-25T02:17:14;97737.07;;;9.65;100.00
34921;BME280;21128;50.016;20.002;2023-04-25T02:19:41;97735.44;;;9.64;100.00
34921;BME280;21128;50.016;20.002;2023-04-25T02:22:07;97742.48;;;9.64;100.00
34921;BME280;21128;50.016;20.002;2023-04-25T02:24:34;97743.30;;;9.64;100.00
34921;BME280;21128;50.016;20.002;2023-04-25T02:27:01;97740.03;;;9.62;100.00
34921;BME280;21128;50.016;20.002;2023-04-25T02:29:29;97732.16;;;9.62;100.00
34921;BME280;21128;50.016;20.002;2023-04-25T02:31:56;97740.85;;;9.63;100.00
34921;BME280;21128;50.016;20.002;2023-04-25T02:34:23;97738.88;;;9.65;100.00
34921;BME280;21128;50.016;20.002;2023-04-25T02:36:52;97738.06;;;9.64;100.00
34921;BME280;21128;50.016;20.002;2023-04-25T02:39:19;97744.94;;;9.65;100.00
34921;BME280;21128;50.016;20.002;2023-04-25T02:41:48;97734.45;;;9.65;100.00
34921;BME280;21128;50.016;20.002;2023-04-25T02:44:15;97742.31;;;9.65;100.00
34921;BME280;21128;50.016;20.002;2023-04-25T02:46:42;97742.31;;;9.65;100.00
34921;BME280;21128;50.016;20.002;2023-04-25T02:49:09;97741.50;;;9.65;100.00
34921;BME280;21128;50.016;20.002;2023-04-25T02:51:36;97742.31;;;9.65;100.00
34921;BME280;21128;50.016;20.002;2023-04-25T02:54:03;97735.44;;;9.64;100.00
34921;BME280;21128;50.016;20.002;2023-04-25T02:56:30;97739.05;;;9.63;100.00
34921;BME280;21128;50.016;20.002;2023-04-25T02:58:57;97728.55;;;9.63;100.00
34921;BME280;21128;50.016;20.002;2023-04-25T03:01:24;97725.11;;;9.63;100.00
34921;BME280;21128;50.016;20.002;2023-04-25T03:03:51;97727.09;;;9.61;100.00
34921;BME280;21128;50.016;20.002;2023-04-25T03:06:17;97719.22;;;9.61;100.00
34921;BME280;21128;50.016;20.002;2023-04-25T03:08:44;97727.25;;;9.59;100.00
34921;BME280;21128;50.016;20.002;2023-04-25T03:11:11;97733.45;;;9.58;100.00
34921;BME280;21128;50.016;20.002;2023-04-25T03:13:38;97718.70;;;9.57;100.00
34921;BME280;21128;50.016;20.002;2023-04-25T03:16:05;97731.82;;;9.57;100.00
34921;BME280;21128;50.016;20.002;2023-04-25T03:18:32;97729.20;;;9.57;100.00
34921;BME280;21128;50.016;20.002;2023-04-25T03:20:59;97731.82;;;9.57;100.00
34921;BME280;21128;50.016;20.002;2023-04-25T03:23:26;97729.06;;;9.58;100.00
34921;BME280;21128;50.016;20.002;2023-04-25T03:25:53;97740.37;;;9.59;100.00
34921;BME280;21128;50.016;20.002;2023-04-25T03:28:20;97735.77;;;9.61;100.00
34921;BME280;21128;50.016;20.002;2023-04-25T03:30:47;97735.94;;;9.59;100.00
34921;BME280;21128;50.016;20.002;2023-04-25T03:33:14;97734.78;;;9.62;100.00
34921;BME280;21128;50.016;20.002;2023-04-25T03:35:41;97744.13;;;9.65;100.00
34921;BME280;21128;50.016;20.002;2023-04-25T03:38:09;97747.56;;;9.65;100.00
34921;BME280;21128;50.016;20.002;2023-04-25T03:40:36;97742.48;;;9.64;100.00
34921;BME280;21128;50.016;20.002;2023-04-25T03:43:03;97756.59;;;9.63;100.00
34921;BME280;21128;50.016;20.002;2023-04-25T03:45:30;97746.27;;;9.61;100.00
34921;BME280;21128;50.016;20.002;2023-04-25T03:47:57;97751.81;;;9.58;100.00
34921;BME280;21128;50.016;20.002;2023-04-25T03:50:24;97758.21;;;9.55;100.00
34921;BME280;21128;50.016;20.002;2023-04-25T03:52:51;97762.80;;;9.53;100.00
34921;BME280;21128;50.016;20.002;2023-04-25T03:55:18;97765.77;;;9.50;100.00
34921;BME280;21128;50.016;20.002;2023-04-25T03:57:45;97757.38;;;9.47;100.00
34921;BME280;21128;50.016;20.002;2023-04-25T04:00:12;97763.77;;;9.44;100.00
34921;BME280;21128;50.016;20.002;2023-04-25T04:02:40;97771.12;;;9.41;100.00
34921;BME280;21128;50.016;20.002;2023-04-25T04:05:07;97767.20;;;9.37;100.00
34921;BME280;21128;50.016;20.002;2023-04-25T04:07:34;97771.92;;;9.33;100.00
34921;BME280;21128;50.016;20.002;2023-04-25T04:10:07;97782.73;;;9.30;100.00
34921;BME280;21128;50.016;20.002;2023-04-25T04:12:34;97790.11;;;9.26;100.00
34921;BME280;21128;50.016;20.002;2023-04-25T04:15:06;97784.52;;;9.21;100.00
34921;BME280;21128;50.016;20.002;2023-04-25T04:17:33;97798.11;;;9.17;100.00
34921;BME280;21128;50.016;20.002;2023-04-25T04:20:00;97790.55;;;9.14;100.00
34921;BME280;21128;50.016;20.002;2023-04-25T04:22:27;97797.92;;;9.10;100.00
34921;BME280;21128;50.016;20.002;2023-04-25T04:24:54;97802.96;;;9.03;100.00
34921;BME280;21128;50.016;20.002;2023-04-25T04:27:23;97797.06;;;9.01;100.00
34921;BME280;21128;50.016;20.002;2023-04-25T04:29:50;97803.29;;;9.00;100.00
34921;BME280;21128;50.016;20.002;2023-04-25T04:32:19;97808.66;;;8.99;100.00
34921;BME280;21128;50.016;20.002;2023-04-25T04:34:46;97812.27;;;8.98;100.00
34921;BME280;21128;50.016;20.002;2023-04-25T04:37:14;97811.61;;;8.96;100.00
34921;BME280;21128;50.016;20.002;2023-04-25T04:39:41;97808.33;;;8.94;100.00
34921;BME280;21128;50.016;20.002;2023-04-25T04:42:08;97819.79;;;8.93;100.00
34921;BME280;21128;50.016;20.002;2023-04-25T04:44:35;97818.28;;;8.90;100.00
34921;BME280;21128;50.016;20.002;2023-04-25T04:47:03;97815.66;;;8.90;100.00
34921;BME280;21128;50.016;20.002;2023-04-25T04:49:33;97822.86;;;8.88;100.00
34921;BME280;21128;50.016;20.002;2023-04-25T04:52:00;97827.45;;;8.86;100.00
34921;BME280;21128;50.016;20.002;2023-04-25T04:54:27;97829.24;;;8.86;100.00
34921;BME280;21128;50.016;20.002;2023-04-25T04:56:54;97838.09;;;8.85;100.00
34921;BME280;21128;50.016;20.002;2023-04-25T04:59:21;97824.17;;;8.84;100.00
34921;BME280;21128;50.016;20.002;2023-04-25T05:01:48;97828.59;;;8.84;100.00
34921;BME280;21128;50.016;20.002;2023-04-25T05:04:15;97826.92;;;8.83;100.00
34921;BME280;21128;50.016;20.002;2023-04-25T05:06:42;97826.92;;;8.83;100.00
34921;BME280;21128;50.016;20.002;2023-04-25T05:09:09;97830.22;;;8.85;100.00
34921;BME280;21128;50.016;20.002;2023-04-25T05:11:36;97832.69;;;8.86;100.00
34921;BME280;21128;50.016;20.002;2023-04-25T05:14:03;97827.45;;;8.86;100.00
34921;BME280;21128;50.016;20.002;2023-04-25T05:16:30;97827.28;;;8.88;100.00
34921;BME280;21128;50.016;20.002;2023-04-25T05:18:57;97839.40;;;8.89;100.00
34921;BME280;21128;50.016;20.002;2023-04-25T05:21:24;97833.34;;;8.88;100.00
34921;BME280;21128;50.016;20.002;2023-04-25T05:23:52;97830.43;;;8.91;100.00
34921;BME280;21128;50.016;20.002;2023-04-25T05:26:18;97843.53;;;8.91;100.00
34921;BME280;21128;50.016;20.002;2023-04-25T05:28:47;97853.16;;;8.91;100.00
34921;BME280;21128;50.016;20.002;2023-04-25T05:31:14;97840.22;;;8.89;100.00
34921;BME280;21128;50.016;20.002;2023-04-25T05:33:41;97850.04;;;8.87;100.00
34921;BME280;21128;50.016;20.002;2023-04-25T05:36:08;97850.48;;;8.83;100.00
34921;BME280;21128;50.016;20.002;2023-04-25T05:38:35;97846.23;;;8.82;100.00
34921;BME280;21128;50.016;20.002;2023-04-25T05:41:02;97845.41;;;8.81;100.00
34921;BME280;21128;50.016;20.002;2023-04-25T05:43:29;97848.35;;;8.78;100.00
34921;BME280;21128;50.016;20.002;2023-04-25T05:45:56;97853.09;;;8.74;100.00
34921;BME280;21128;50.016;20.002;2023-04-25T05:48:23;97859.28;;;8.73;100.00
34921;BME280;21128;50.016;20.002;2023-04-25T05:50:50;97862.88;;;8.72;100.00
34921;BME280;21128;50.016;20.002;2023-04-25T05:53:19;97863.03;;;8.71;100.00
34921;BME280;21128;50.016;20.002;2023-04-25T05:55:46;97866.80;;;8.68;100.00
34921;BME280;21128;50.016;20.002;2023-04-25T05:58:13;97880.17;;;8.65;100.00
34921;BME280;21128;50.016;20.002;2023-04-25T06:00:40;97873.61;;;8.61;100.00
34921;BME280;21128;50.016;20.002;2023-04-25T06:03:08;97872.42;;;8.56;100.00
34921;BME280;21128;50.016;20.002;2023-04-25T06:05:42;97877.16;;;8.52;100.00
34921;BME280;21128;50.016;20.002;2023-04-25T06:08:09;97880.75;;;8.51;100.00
34921;BME280;21128;50.016;20.002;2023-04-25T06:10:37;97882.83;;;8.48;100.00
34921;BME280;21128;50.016;20.002;2023-04-25T06:13:05;97887.72;;;8.42;100.00
34921;BME280;21128;50.016;20.002;2023-04-25T06:15:32;97890.50;;;8.41;100.00
34921;BME280;21128;50.016;20.002;2023-04-25T06:17:59;97888.31;;;8.36;100.00
34921;BME280;21128;50.016;20.002;2023-04-25T06:20:26;97878.12;;;8.33;100.00
34921;BME280;21128;50.016;20.002;2023-04-25T06:22:53;97888.72;;;8.32;100.00
34921;BME280;21128;50.016;20.002;2023-04-25T06:25:20;97889.70;;;8.31;100.00
34921;BME280;21128;50.016;20.002;2023-04-25T06:27:47;97895.75;;;8.31;100.00
34921;BME280;21128;50.016;20.002;2023-04-25T06:30:14;97892.31;;;8.31;100.00
34921;BME280;21128;50.016;20.002;2023-04-25T06:32:41;97886.27;;;8.30;100.00
34921;BME280;21128;50.016;20.002;2023-04-25T06:35:09;97902.12;;;8.29;100.00
34921;BME280;21128;50.016;20.002;2023-04-25T06:37:36;97890.17;;;8.26;100.00
34921;BME280;21128;50.016;20.002;2023-04-25T06:40:04;97900.17;;;8.31;100.00
34921;BME280;21128;50.016;20.002;2023-04-25T06:42:31;97897.39;;;8.32;100.00
34921;BME280;21128;50.016;20.002;2023-04-25T06:44:58;97894.53;;;8.35;100.00
34921;BME280;21128;50.016;20.002;2023-04-25T06:47:25;97894.88;;;8.40;100.00
34921;BME280;21128;50.016;20.002;2023-04-25T06:49:52;97897.05;;;8.45;100.00
34921;BME280;21128;50.016;20.002;2023-04-25T06:52:18;97897.94;;;8.54;100.00
34921;BME280;21128;50.016;20.002;2023-04-25T06:54:45;97884.09;;;8.61;100.00
34921;BME280;21128;50.016;20.002;2023-04-25T06:57:12;97892.32;;;8.66;100.00
34921;BME280;21128;50.016;20.002;2023-04-25T06:59:39;97890.37;;;8.68;100.00
34921;BME280;21128;50.016;20.002;2023-04-25T07:02:06;97893.33;;;8.73;100.00
34921;BME280;21128;50.016;20.002;2023-04-25T07:04:34;97893.04;;;8.77;100.00
34921;BME280;21128;50.016;20.002;2023-04-25T07:07:01;97897.52;;;8.84;100.00
34921;BME280;21128;50.016;20.002;2023-04-25T07:09:29;97890.00;;;8.89;100.00
34921;BME280;21128;50.016;20.002;2023-04-25T07:11:56;97893.44;;;8.90;100.00
34921;BME280;21128;50.016;20.002;2023-04-25T07:14:23;97884.75;;;8.89;100.00
34921;BME280;21128;50.016;20.002;2023-04-25T07:16:51;97888.84;;;8.84;100.00
34921;BME280;21128;50.016;20.002;2023-04-25T07:19:17;97896.32;;;8.79;100.00
34921;BME280;21128;50.016;20.002;2023-04-25T07:21:44;97895.13;;;8.73;100.00
34921;BME280;21128;50.016;20.002;2023-04-25T07:24:11;97898.06;;;8.70;100.00
34921;BME280;21128;50.016;20.002;2023-04-25T07:26:38;97905.42;;;8.66;100.00
34921;BME280;21128;50.016;20.002;2023-04-25T07:29:05;97895.77;;;8.67;100.00
34921;BME280;21128;50.016;20.002;2023-04-25T07:31:32;97901.82;;;8.67;100.00
34921;BME280;21128;50.016;20.002;2023-04-25T07:33:59;97899.70;;;8.71;100.00
34921;BME280;21128;50.016;20.002;2023-04-25T07:36:26;97907.78;;;8.78;100.00
34921;BME280;21128;50.016;20.002;2023-04-25T07:38:53;97906.85;;;8.87;100.00
34921;BME280;21128;50.016;20.002;2023-04-25T07:41:20;97900.84;;;8.94;100.00
34921;BME280;21128;50.016;20.002;2023-04-25T07:43:47;97898.94;;;9.05;100.00
34921;BME280;21128;50.016;20.002;2023-04-25T07:46:14;97910.81;;;9.17;100.00
34921;BME280;21128;50.016;20.002;2023-04-25T07:48:41;97896.90;;;9.24;100.00
34921;BME280;21128;50.016;20.002;2023-04-25T07:51:08;97911.03;;;9.31;100.00
34921;BME280;21128;50.016;20.002;2023-04-25T07:53:34;97892.52;;;9.33;100.00
34921;BME280;21128;50.016;20.002;2023-04-25T07:56:02;97911.03;;;9.31;100.00
34921;BME280;21128;50.016;20.002;2023-04-25T07:58:29;97899.56;;;9.33;100.00
34921;BME280;21128;50.016;20.002;2023-04-25T08:00:56;97907.75;;;9.29;100.00
34921;BME280;21128;50.016;20.002;2023-04-25T08:03:23;97907.25;;;9.26;100.00
34921;BME280;21128;50.016;20.002;2023-04-25T08:05:50;97899.52;;;9.24;100.00
34921;BME280;21128;50.016;20.002;2023-04-25T08:08:17;97902.88;;;9.35;100.00
34921;BME280;21128;50.016;20.002;2023-04-25T08:10:44;97905.20;;;9.46;100.00
34921;BME280;21128;50.016;20.002;2023-04-25T08:13:11;97902.78;;;9.52;100.00
34921;BME280;21128;50.016;20.002;2023-04-25T08:15:38;97900.48;;;9.57;100.00
34921;BME280;21128;50.016;20.002;2023-04-25T08:18:04;97903.63;;;9.61;100.00
34921;BME280;21128;50.016;20.002;2023-04-25T08:20:32;97898.70;;;9.66;100.00
34921;BME280;21128;50.016;20.002;2023-04-25T08:22:59;97906.45;;;9.68;100.00
34921;BME280;21128;50.016;20.002;2023-04-25T08:25:25;97896.91;;;9.58;100.00
34921;BME280;21128;50.016;20.002;2023-04-25T08:27:52;97899.66;;;9.57;100.00
34921;BME280;21128;50.016;20.002;2023-04-25T08:30:20;97908.52;;;9.56;100.00
34921;BME280;21128;50.016;20.002;2023-04-25T08:32:47;97908.64;;;9.46;100.00
34921;BME280;21128;50.016;20.002;2023-04-25T08:35:14;97912.05;;;9.39;100.00
34921;BME280;21128;50.016;20.002;2023-04-25T08:37:43;97903.85;;;9.34;100.00
34921;BME280;21128;50.016;20.002;2023-04-25T08:40:12;97914.63;;;9.30;100.00
34921;BME280;21128;50.016;20.002;2023-04-25T08:42:44;97912.34;;;9.27;100.00
34921;BME280;21128;50.016;20.002;2023-04-25T08:45:12;97902.99;;;9.25;100.00
34921;BME280;21128;50.016;20.002;2023-04-25T08:47:39;97918.03;;;9.23;100.00
34921;BME280;21128;50.016;20.002;2023-04-25T08:50:08;97911.31;;;9.20;100.00
34921;BME280;21128;50.016;20.002;2023-04-25T08:52:43;97920.81;;;9.21;100.00
34921;BME280;21128;50.016;20.002;2023-04-25T08:55:12;97926.05;;;9.21;100.00
34921;BME280;21128;50.016;20.002;2023-04-25T08:57:42;97918.52;;;9.18;100.00
34921;BME280;21128;50.016;20.002;2023-04-25T09:00:12;97921.14;;;9.18;100.00
34921;BME280;21128;50.016;20.002;2023-04-25T09:02:39;97926.67;;;9.15;100.00
34921;BME280;21128;50.016;20.002;2023-04-25T09:05:07;97929.45;;;9.14;100.00
34921;BME280;21128;50.016;20.002;2023-04-25T09:07:36;97920.27;;;9.10;100.00
34921;BME280;21128;50.016;20.002;2023-04-25T09:10:04;97923.70;;;9.10;100.00
34921;BME280;21128;50.016;20.002;2023-04-25T09:12:31;97924.20;;;9.14;100.00
34921;BME280;21128;50.016;20.002;2023-04-25T09:15:04;97931.30;;;9.21;100.00
34921;BME280;21128;50.016;20.002;2023-04-25T09:17:32;97927.58;;;9.32;100.00
34921;BME280;21128;50.016;20.002;2023-04-25T09:20:11;97932.57;;;9.43;100.00
34921;BME280;21128;50.016;20.002;2023-04-25T09:22:39;97927.48;;;9.42;100.00
34921;BME280;21128;50.016;20.002;2023-04-25T09:25:10;97933.55;;;9.42;100.00
34921;BME280;21128;50.016;20.002;2023-04-25T09:27:54;97923.06;;;9.42;100.00
34921;BME280;21128;50.016;20.002;2023-04-25T09:30:30;97930.56;;;9.37;100.00
34921;BME280;21128;50.016;20.002;2023-04-25T09:33:04;97932.37;;;9.37;100.00
34921;BME280;21128;50.016;20.002;2023-04-25T09:35:40;97934.33;;;9.35;100.00
34921;BME280;21128;50.016;20.002;2023-04-25T09:38:14;97931.02;;;9.33;100.00
34921;BME280;21128;50.016;20.002;2023-04-25T09:40:43;97934.63;;;9.31;100.00
34921;BME280;21128;50.016;20.002;2023-04-25T09:43:20;97933.14;;;9.29;100.00
34921;BME280;21128;50.016;20.002;2023-04-25T09:45:48;97922.00;;;9.27;100.00
34921;BME280;21128;50.016;20.002;2023-04-25T09:48:22;97935.11;;;9.27;100.00
34921;BME280;21128;50.016;20.002;2023-04-25T09:51:14;97935.40;;;9.24;100.00
34921;BME280;21128;50.016;20.002;2023-04-25T09:53:46;97937.20;;;9.23;100.00
34921;BME280;21128;50.016;20.002;2023-04-25T09:56:16;97926.88;;;9.22;100.00
34921;BME280;21128;50.016;20.002;2023-04-25T09:58:43;97925.73;;;9.24;100.00
34921;BME280;21128;50.016;20.002;2023-04-25T10:01:10;97924.46;;;9.28;100.00
34921;BME280;21128;50.016;20.002;2023-04-25T10:03:38;97919.58;;;9.34;100.00
34921;BME280;21128;50.016;20.002;2023-04-25T10:06:12;97924.86;;;9.42;100.00
34921;BME280;21128;50.016;20.002;2023-04-25T10:08:41;97928.80;;;9.46;100.00
34921;BME280;21128;50.016;20.002;2023-04-25T10:11:08;97928.48;;;9.49;100.00
34921;BME280;21128;50.016;20.002;2023-04-25T10:13:36;97926.22;;;9.54;100.00
34921;BME280;21128;50.016;20.002;2023-04-25T10:16:04;97929.98;;;9.51;100.00
34921;BME280;21128;50.016;20.002;2023-04-25T10:18:32;97924.05;;;9.49;100.00
34921;BME280;21128;50.016;20.002;2023-04-25T10:21:01;97919.95;;;9.47;100.00
34921;BME280;21128;50.016;20.002;2023-04-25T10:23:30;97925.20;;;9.47;100.00
34921;BME280;21128;50.016;20.002;2023-04-25T10:25:57;97930.44;;;9.47;100.00
34921;BME280;21128;50.016;20.002;2023-04-25T10:28:25;97931.79;;;9.51;100.00
34921;BME280;21128;50.016;20.002;2023-04-25T10:31:03;97929.50;;;9.56;100.00
34921;BME280;21128;50.016;20.002;2023-04-25T10:33:38;97923.50;;;9.72;100.00
34921;BME280;21128;50.016;20.002;2023-04-25T10:36:09;97923.71;;;9.86;100.00
34921;BME280;21128;50.016;20.002;2023-04-25T10:38:37;97930.98;;;10.01;100.00
34921;BME280;21128;50.016;20.002;2023-04-25T10:41:06;97921.97;;;10.11;100.00
34921;BME280;21128;50.016;20.002;2023-04-25T10:43:40;97917.26;;;10.31;100.00
34921;BME280;21128;50.016;20.002;2023-04-25T10:48:58;97910.72;;;10.60;100.00
34921;BME280;21128;50.016;20.002;2023-04-25T10:51:27;97908.74;;;10.62;100.00
34921;BME280;21128;50.016;20.002;2023-04-25T10:56:23;97905.30;;;10.61;100.00
34921;BME280;21128;50.016;20.002;2023-04-25T10:58:51;97908.41;;;10.65;100.00
34921;BME280;21128;50.016;20.002;2023-04-25T11:01:24;97910.72;;;10.68;100.00
34921;BME280;21128;50.016;20.002;2023-04-25T11:03:57;97896.73;;;10.67;100.00
34921;BME280;21128;50.016;20.002;2023-04-25T11:09:17;97892.29;;;10.76;100.00
34921;BME280;21128;50.016;20.002;2023-04-25T11:11:56;97887.20;;;10.83;100.00
34921;BME280;21128;50.016;20.002;2023-04-25T11:14:24;97886.20;;;10.92;100.00
34921;BME280;21128;50.016;20.002;2023-04-25T11:16:55;97895.70;;;11.01;100.00
34921;BME280;21128;50.016;20.002;2023-04-25T11:19:24;97893.88;;;11.10;100.00
34921;BME280;21128;50.016;20.002;2023-04-25T11:21:59;97897.33;;;11.18;100.00
34921;BME280;21128;50.016;20.002;2023-04-25T11:24:31;97900.08;;;11.25;100.00
34921;BME280;21128;50.016;20.002;2023-04-25T11:26:59;97899.77;;;11.28;100.00
34921;BME280;21128;50.016;20.002;2023-04-25T11:29:27;97897.45;;;11.25;99.47
34921;BME280;21128;50.016;20.002;2023-04-25T11:31:54;97889.73;;;11.23;99.85
34921;BME280;21128;50.016;20.002;2023-04-25T11:34:25;97898.15;;;11.19;98.84
34921;BME280;21128;50.016;20.002;2023-04-25T11:36:53;97900.80;;;11.11;98.77
34921;BME280;21128;50.016;20.002;2023-04-25T11:39:20;97900.81;;;11.03;98.61
34921;BME280;21128;50.016;20.002;2023-04-25T11:41:47;97895.89;;;10.91;98.99
34921;BME280;21128;50.016;20.002;2023-04-25T11:44:18;97897.53;;;10.84;98.95
34921;BME280;21128;50.016;20.002;2023-04-25T11:46:45;97901.50;;;10.80;98.17
34921;BME280;21128;50.016;20.002;2023-04-25T11:49:14;97898.88;;;10.72;98.15
34921;BME280;21128;50.016;20.002;2023-04-25T11:51:45;97901.69;;;10.62;97.73
34921;BME280;21128;50.016;20.002;2023-04-25T11:54:13;97904.31;;;10.54;97.61
34921;BME280;21128;50.016;20.002;2023-04-25T11:56:42;97902.16;;;10.50;98.55
34921;BME280;21128;50.016;20.002;2023-04-25T11:59:10;97896.91;;;10.50;98.23
34921;BME280;21128;50.016;20.002;2023-04-25T12:01:38;97894.62;;;10.47;98.77
34921;BME280;21128;50.016;20.002;2023-04-25T12:04:20;97898.58;;;10.42;99.21
34921;BME280;21128;50.016;20.002;2023-04-25T12:06:53;97896.09;;;10.41;98.70
34921;BME280;21128;50.016;20.002;2023-04-25T12:09:28;97895.27;;;10.40;98.64
34921;BME280;21128;50.016;20.002;2023-04-25T12:11:56;97885.75;;;10.39;99.33
34921;BME280;21128;50.016;20.002;2023-04-25T12:14:33;97891.66;;;10.41;99.12
34921;BME280;21128;50.016;20.002;2023-04-25T12:17:03;97892.16;;;10.45;99.67
34921;BME280;21128;50.016;20.002;2023-04-25T12:19:33;97894.62;;;10.47;99.80
34921;BME280;21128;50.016;20.002;2023-04-25T12:22:01;97892.16;;;10.45;100.00
34921;BME280;21128;50.016;20.002;2023-04-25T12:24:33;97887.73;;;10.46;99.59
34921;BME280;21128;50.016;20.002;2023-04-25T12:27:03;97889.37;;;10.47;99.69
34921;BME280;21128;50.016;20.002;2023-04-25T12:29:32;97894.45;;;10.48;99.83
34921;BME280;21128;50.016;20.002;2023-04-25T12:31:59;97898.55;;;10.51;100.00
34921;BME280;21128;50.016;20.002;2023-04-25T12:34:28;97895.27;;;10.49;99.70
34921;BME280;21128;50.016;20.002;2023-04-25T12:36:55;97900.52;;;10.40;99.92
34921;BME280;21128;50.016;20.002;2023-04-25T12:39:24;97900.69;;;10.39;100.00
34921;BME280;21128;50.016;20.002;2023-04-25T12:41:52;97902.97;;;10.34;98.64
34921;BME280;21128;50.016;20.002;2023-04-25T12:44:22;97910.53;;;10.29;99.48
34921;BME280;21128;50.016;20.002;2023-04-25T12:46:49;97906.75;;;10.23;100.00
34921;BME280;21128;50.016;20.002;2023-04-25T12:49:17;97908.69;;;10.21;99.78
34921;BME280;21128;50.016;20.002;2023-04-25T12:51:43;97904.08;;;10.15;99.53
34921;BME280;21128;50.016;20.002;2023-04-25T12:54:11;97900.31;;;10.09;98.68
34921;BME280;21128;50.016;20.002;2023-04-25T12:56:38;97912.61;;;10.01;97.45
34921;BME280;21128;50.016;20.002;2023-04-25T12:59:05;97904.72;;;9.93;97.71
34921;BME280;21128;50.016;20.002;2023-04-25T13:01:32;97907.80;;;9.88;98.23